Jolyn — PJWG — position and weather

sailwx.info

Track history (hours):
 
Tides and Currents Weather Stations Pressure Air Temp Water Temp Dewpoint Dewpoint Depression Visibility Wind Speed Wind Dir Waves Ship Positions

Jolyn

Last reported at 2015-Aug-04 04:33 UTC. Time now 2015-Aug-04 05:22 UTC.
Position N 59°41' E 019°58'.

Length 89 m; draft 5.4 m.

Type: Cargo ship. MMSI: 306813000.

Date/timePositionNaut miles runAvg speedWind from/ knotsBaromVisibWave heightAir tempDewpointWater temp
2015-Aug-04 04:33N 59°41' E 019°58'9 8.8
2015-Aug-04 03:33N 59°35' E 020°10'8 8.3
2015-Aug-04 02:33N 59°27' E 020°06'9 9.0
2015-Aug-04 01:33N 59°19' E 019°56'9 8.9
2015-Aug-04 00:31N 59°11' E 019°46'9 8.7
2015-Aug-03 23:33N 59°04' E 019°37'10 8.7
2015-Aug-03 22:21N 58°55' E 019°27'7 8.9
2015-Aug-03 21:33N 58°49' E 019°19'31 9.2
2015-Aug-03 18:11N 58°23' E 018°48'19 9.0
2015-Aug-03 16:06N 58°07' E 018°30'5 9.1
2015-Aug-03 15:33N 58°03' E 018°25'22 9.2
2015-Aug-03 13:10N 57°44' E 018°05'6 9.3
2015-Aug-03 12:33N 57°39' E 017°59'9 9.1
2015-Aug-03 11:33N 57°31' E 017°51'9 9.2
2015-Aug-03 10:33N 57°22' E 017°44'10 9.6
2015-Aug-03 09:33N 57°13' E 017°38'10 9.9
2015-Aug-03 08:31N 57°04' E 017°31'69 9.3
2015-Aug-03 01:07N 56°01' E 016°40'9 9.2
2015-Aug-03 00:11N 55°57' E 016°26'10 9.4
2015-Aug-02 23:08N 55°52' E 016°11'5 9.4
2015-Aug-02 22:33N 55°50' E 016°03'9 9.3
2015-Aug-02 21:33N 55°45' E 015°48'9 9.3
2015-Aug-02 20:33N 55°40' E 015°34'10 9.6
2015-Aug-02 19:33N 55°36' E 015°19'10 9.8
2015-Aug-02 18:33N 55°31' E 015°04'10 9.9
2015-Aug-02 17:33N 55°26' E 014°48'10 9.9
2015-Aug-02 16:33N 55°20' E 014°35'10 9.9
2015-Aug-02 15:33N 55°13' E 014°23'1010.0
2015-Aug-02 14:33N 55°05' E 014°12'10 9.7
2015-Aug-02 13:33N 54°60' E 013°58'10 9.9
2015-Aug-02 12:33N 54°56' E 013°42'10 9.9
2015-Aug-02 11:33N 54°53' E 013°26'10 9.9
2015-Aug-02 10:33N 54°49' E 013°10'10 9.7
2015-Aug-02 09:33N 54°45' E 012°54'10 9.6
2015-Aug-02 08:33N 54°40' E 012°40'9 9.5
2015-Aug-02 07:33N 54°35' E 012°26'9 9.5
2015-Aug-02 06:33N 54°28' E 012°15'9 9.0
2015-Aug-02 05:33N 54°24' E 012°00'10 9.8
2015-Aug-02 04:33N 54°26' E 011°44'1010.3
2015-Aug-02 03:33N 54°30' E 011°28'9 9.6
2015-Aug-02 02:33N 54°34' E 011°13'9 8.9
2015-Aug-02 01:33N 54°35' E 010°58'10 9.9
2015-Aug-02 00:33N 54°34' E 010°41'10 9.6
2015-Aug-01 23:33N 54°31' E 010°25'9 9.4
2015-Aug-01 22:33N 54°25' E 010°13'4 3.9
2015-Aug-01 21:33N 54°22' E 010°08'7 7.3
2015-Aug-01 20:33N 54°21' E 009°56'8 7.6
2015-Aug-01 19:33N 54°19' E 009°43'6 5.8
2015-Aug-01 18:33N 54°15' E 009°37'9 8.6
2015-Aug-01 17:33N 54°10' E 009°25'17 7.4
2015-Aug-01 15:18N 53°55' E 009°11'2 1.7
2015-Aug-01 14:21N 53°54' E 009°09'0 0.0
2015-Aug-01 13:30N 53°54' E 009°09'0 0.4
2015-Aug-01 12:27N 53°54' E 009°09'0 0.0
2015-Aug-01 11:33N 53°54' E 009°09'2 1.6
2015-Aug-01 10:31N 53°53' E 009°06'4 3.9
2015-Aug-01 09:33N 53°51' E 009°00'1010.1
2015-Aug-01 08:33N 53°52' E 008°43'10 9.6
2015-Aug-01 07:33N 53°58' E 008°31'10 9.7
2015-Aug-01 06:33N 53°59' E 008°14'10 9.4
2015-Aug-01 05:32N 54°01' E 007°58'9 8.9
2015-Aug-01 04:33N 54°05' E 007°45'9 8.8
2015-Aug-01 03:33N 54°09' E 007°31'9 8.6
2015-Aug-01 02:33N 54°15' E 007°20'9 8.7
2015-Aug-01 01:33N 54°19' E 007°08'9 8.8
2015-Aug-01 00:33N 54°24' E 006°56'235 9.4
2015-Jul-30 23:33N 54°50' E 000°12'9 9.1
2015-Jul-30 22:33N 54°48' W 000°03'9 8.9
2015-Jul-30 21:33N 54°46' W 000°18'9 8.8
2015-Jul-30 20:31N 54°43' W 000°33'9 8.4
2015-Jul-30 19:30N 54°43' W 000°48'9 8.9
2015-Jul-30 18:32N 54°42' W 001°03'  
2015-Jul-28 11:04N 54°42' W 001°12'0 0.0
2015-Jul-28 10:34N 54°42' W 001°12'0 0.0
2015-Jul-28 09:34N 54°42' W 001°12'0 0.0
2015-Jul-28 08:19N 54°42' W 001°12'0 0.0
2015-Jul-28 07:34N 54°42' W 001°12'0 0.0
2015-Jul-27 08:33N 54°42' W 001°12'0 0.0
2015-Jul-27 07:33N 54°42' W 001°12'0 0.0
2015-Jul-27 06:33N 54°42' W 001°12'0 0.0
2015-Jul-25 08:26N 54°42' W 001°11'6 6.5
2015-Jul-25 07:33N 54°43' W 001°02'1010.4
2015-Jul-25 06:33N 54°45' W 000°44'1110.8
2015-Jul-25 05:30N 54°48' W 000°25'  
Track history (hours):
 
Tides and Currents Weather Stations Pressure Air Temp Water Temp Dewpoint Dewpoint Depression Visibility Wind Speed Wind Dir Waves Ship Positions

Jolyn

Last reported at 2015-Aug-04 04:33 UTC. Time now 2015-Aug-04 05:22 UTC.
Position N 59°41' E 019°58'.

Length 89 m; draft 5.4 m.

Type: Cargo ship. MMSI: 306813000.

Date/timePositionNaut miles runAvg speedWind from/ knotsBaromVisibWave heightAir tempDewpointWater temp
2015-Aug-04 04:33N 59°41' E 019°58'9 8.8
2015-Aug-04 03:33N 59°35' E 020°10'8 8.3
2015-Aug-04 02:33N 59°27' E 020°06'9 9.0
2015-Aug-04 01:33N 59°19' E 019°56'9 8.9
2015-Aug-04 00:31N 59°11' E 019°46'9 8.7
2015-Aug-03 23:33N 59°04' E 019°37'10 8.7
2015-Aug-03 22:21N 58°55' E 019°27'7 8.9
2015-Aug-03 21:33N 58°49' E 019°19'31 9.2
2015-Aug-03 18:11N 58°23' E 018°48'19 9.0
2015-Aug-03 16:06N 58°07' E 018°30'5 9.1
2015-Aug-03 15:33N 58°03' E 018°25'22 9.2
2015-Aug-03 13:10N 57°44' E 018°05'6 9.3
2015-Aug-03 12:33N 57°39' E 017°59'9 9.1
2015-Aug-03 11:33N 57°31' E 017°51'9 9.2
2015-Aug-03 10:33N 57°22' E 017°44'10 9.6
2015-Aug-03 09:33N 57°13' E 017°38'10 9.9
2015-Aug-03 08:31N 57°04' E 017°31'69 9.3
2015-Aug-03 01:07N 56°01' E 016°40'9 9.2
2015-Aug-03 00:11N 55°57' E 016°26'10 9.4
2015-Aug-02 23:08N 55°52' E 016°11'5 9.4
2015-Aug-02 22:33N 55°50' E 016°03'9 9.3
2015-Aug-02 21:33N 55°45' E 015°48'9 9.3
2015-Aug-02 20:33N 55°40' E 015°34'10 9.6
2015-Aug-02 19:33N 55°36' E 015°19'10 9.8
2015-Aug-02 18:33N 55°31' E 015°04'10 9.9
2015-Aug-02 17:33N 55°26' E 014°48'10 9.9
2015-Aug-02 16:33N 55°20' E 014°35'10 9.9
2015-Aug-02 15:33N 55°13' E 014°23'1010.0
2015-Aug-02 14:33N 55°05' E 014°12'10 9.7
2015-Aug-02 13:33N 54°60' E 013°58'10 9.9
2015-Aug-02 12:33N 54°56' E 013°42'10 9.9
2015-Aug-02 11:33N 54°53' E 013°26'10 9.9
2015-Aug-02 10:33N 54°49' E 013°10'10 9.7
2015-Aug-02 09:33N 54°45' E 012°54'10 9.6
2015-Aug-02 08:33N 54°40' E 012°40'9 9.5
2015-Aug-02 07:33N 54°35' E 012°26'9 9.5
2015-Aug-02 06:33N 54°28' E 012°15'9 9.0
2015-Aug-02 05:33N 54°24' E 012°00'10 9.8
2015-Aug-02 04:33N 54°26' E 011°44'1010.3
2015-Aug-02 03:33N 54°30' E 011°28'9 9.6
2015-Aug-02 02:33N 54°34' E 011°13'9 8.9
2015-Aug-02 01:33N 54°35' E 010°58'10 9.9
2015-Aug-02 00:33N 54°34' E 010°41'10 9.6
2015-Aug-01 23:33N 54°31' E 010°25'9 9.4
2015-Aug-01 22:33N 54°25' E 010°13'4 3.9
2015-Aug-01 21:33N 54°22' E 010°08'7 7.3
2015-Aug-01 20:33N 54°21' E 009°56'8 7.6
2015-Aug-01 19:33N 54°19' E 009°43'6 5.8
2015-Aug-01 18:33N 54°15' E 009°37'9 8.6
2015-Aug-01 17:33N 54°10' E 009°25'17 7.4
2015-Aug-01 15:18N 53°55' E 009°11'2 1.7
2015-Aug-01 14:21N 53°54' E 009°09'0 0.0
2015-Aug-01 13:30N 53°54' E 009°09'0 0.4
2015-Aug-01 12:27N 53°54' E 009°09'0 0.0
2015-Aug-01 11:33N 53°54' E 009°09'2 1.6
2015-Aug-01 10:31N 53°53' E 009°06'4 3.9
2015-Aug-01 09:33N 53°51' E 009°00'1010.1
2015-Aug-01 08:33N 53°52' E 008°43'10 9.6
2015-Aug-01 07:33N 53°58' E 008°31'10 9.7
2015-Aug-01 06:33N 53°59' E 008°14'10 9.4
2015-Aug-01 05:32N 54°01' E 007°58'9 8.9
2015-Aug-01 04:33N 54°05' E 007°45'9 8.8
2015-Aug-01 03:33N 54°09' E 007°31'9 8.6
2015-Aug-01 02:33N 54°15' E 007°20'9 8.7
2015-Aug-01 01:33N 54°19' E 007°08'9 8.8
2015-Aug-01 00:33N 54°24' E 006°56'235 9.4
2015-Jul-30 23:33N 54°50' E 000°12'9 9.1
2015-Jul-30 22:33N 54°48' W 000°03'9 8.9
2015-Jul-30 21:33N 54°46' W 000°18'9 8.8
2015-Jul-30 20:31N 54°43' W 000°33'9 8.4
2015-Jul-30 19:30N 54°43' W 000°48'9 8.9
2015-Jul-30 18:32N 54°42' W 001°03'  
2015-Jul-28 11:04N 54°42' W 001°12'0 0.0
2015-Jul-28 10:34N 54°42' W 001°12'0 0.0
2015-Jul-28 09:34N 54°42' W 001°12'0 0.0
2015-Jul-28 08:19N 54°42' W 001°12'0 0.0
2015-Jul-28 07:34N 54°42' W 001°12'0 0.0
2015-Jul-27 08:33N 54°42' W 001°12'0 0.0
2015-Jul-27 07:33N 54°42' W 001°12'0 0.0
2015-Jul-27 06:33N 54°42' W 001°12'0 0.0
2015-Jul-25 08:26N 54°42' W 001°11'6 6.5
2015-Jul-25 07:33N 54°43' W 001°02'1010.4
2015-Jul-25 06:33N 54°45' W 000°44'1110.8
2015-Jul-25 05:30N 54°48' W 000°25'  

Dump ship's entire track history